sensor_id;sensor_type;location;lat;lon;timestamp;pressure;altitude;pressure_sealevel;temperature;humidity
79129;BME280;68529;43.286;23.360;2023-06-14T00:00:36;98950.47;;;18.67;72.03
79129;BME280;68529;43.286;23.360;2023-06-14T00:03:06;98948.69;;;18.67;71.97
79129;BME280;68529;43.286;23.360;2023-06-14T00:05:33;98949.41;;;18.69;71.75
79129;BME280;68529;43.286;23.360;2023-06-14T00:08:04;98947.09;;;18.65;71.70
79129;BME280;68529;43.286;23.360;2023-06-14T00:10:33;98949.44;;;18.56;71.77
79129;BME280;68529;43.286;23.360;2023-06-14T00:13:03;98947.84;;;18.54;72.10
79129;BME280;68529;43.286;23.360;2023-06-14T00:15:30;98946.66;;;18.58;72.08
79129;BME280;68529;43.286;23.360;2023-06-14T00:17:57;98946.53;;;18.59;72.05
79129;BME280;68529;43.286;23.360;2023-06-14T00:20:29;98951.13;;;18.57;72.21
79129;BME280;68529;43.286;23.360;2023-06-14T00:22:56;98946.53;;;18.59;71.94
79129;BME280;68529;43.286;23.360;2023-06-14T00:25:24;98953.47;;;18.62;72.16
79129;BME280;68529;43.286;23.360;2023-06-14T00:27:51;98949.84;;;18.63;72.10
79129;BME280;68529;43.286;23.360;2023-06-14T00:30:17;98949.00;;;18.63;71.79
79129;BME280;68529;43.286;23.360;2023-06-14T00:32:43;98943.88;;;18.59;71.99
79129;BME280;68529;43.286;23.360;2023-06-14T00:35:09;98950.19;;;18.58;72.29
79129;BME280;68529;43.286;23.360;2023-06-14T00:37:35;98946.03;;;18.54;72.02
79129;BME280;68529;43.286;23.360;2023-06-14T00:40:00;98945.31;;;18.52;72.39
79129;BME280;68529;43.286;23.360;2023-06-14T00:42:27;98941.69;;;18.53;72.25
79129;BME280;68529;43.286;23.360;2023-06-14T00:44:52;98943.72;;;18.50;72.31
79129;BME280;68529;43.286;23.360;2023-06-14T00:47:18;98935.38;;;18.54;72.07
79129;BME280;68529;43.286;23.360;2023-06-14T00:49:48;98931.06;;;18.53;72.18
79129;BME280;68529;43.286;23.360;2023-06-14T00:52:16;98929.84;;;18.57;71.98
79129;BME280;68529;43.286;23.360;2023-06-14T00:54:41;98933.47;;;18.56;72.15
79129;BME280;68529;43.286;23.360;2023-06-14T00:57:08;98930.81;;;18.56;71.93
79129;BME280;68529;43.286;23.360;2023-06-14T00:59:37;98929.13;;;18.55;71.76
79129;BME280;68529;43.286;23.360;2023-06-14T01:02:05;98932.72;;;18.54;71.86
79129;BME280;68529;43.286;23.360;2023-06-14T01:04:31;98937.97;;;18.56;71.88
79129;BME280;68529;43.286;23.360;2023-06-14T01:07:07;98922.00;;;18.56;71.98
79129;BME280;68529;43.286;23.360;2023-06-14T01:10:06;98930.72;;;18.58;71.79
79129;BME280;68529;43.286;23.360;2023-06-14T01:12:59;98929.13;;;18.55;72.11
79129;BME280;68529;43.286;23.360;2023-06-14T01:15:30;98933.16;;;18.48;72.18
79129;BME280;68529;43.286;23.360;2023-06-14T01:17:56;98929.69;;;18.48;72.47
79129;BME280;68529;43.286;23.360;2023-06-14T01:20:29;98935.91;;;18.47;72.43
79129;BME280;68529;43.286;23.360;2023-06-14T01:22:56;98925.38;;;18.45;72.16
79129;BME280;68529;43.286;23.360;2023-06-14T01:25:22;98921.13;;;18.43;72.54
79129;BME280;68529;43.286;23.360;2023-06-14T01:27:49;98930.19;;;18.40;72.32
79129;BME280;68529;43.286;23.360;2023-06-14T01:30:17;98926.13;;;18.47;72.35
79129;BME280;68529;43.286;23.360;2023-06-14T01:32:43;98935.72;;;18.50;72.41
79129;BME280;68529;43.286;23.360;2023-06-14T01:35:10;98930.50;;;18.48;72.19
79129;BME280;68529;43.286;23.360;2023-06-14T01:37:36;98928.59;;;18.50;72.18
79129;BME280;68529;43.286;23.360;2023-06-14T01:40:04;98933.16;;;18.48;72.15
79129;BME280;68529;43.286;23.360;2023-06-14T01:42:33;98927.75;;;18.50;72.42
79129;BME280;68529;43.286;23.360;2023-06-14T01:45:00;98924.25;;;18.49;72.25
79129;BME280;68529;43.286;23.360;2023-06-14T01:47:26;98930.19;;;18.53;72.06
79129;BME280;68529;43.286;23.360;2023-06-14T01:49:52;98936.00;;;18.45;72.28
79129;BME280;68529;43.286;23.360;2023-06-14T01:52:17;98937.00;;;18.44;72.32
79129;BME280;68529;43.286;23.360;2023-06-14T01:54:44;98934.88;;;18.49;72.19
79129;BME280;68529;43.286;23.360;2023-06-14T01:57:11;98937.19;;;18.54;72.09
79129;BME280;68529;43.286;23.360;2023-06-14T01:59:37;98939.97;;;18.52;72.34
79129;BME280;68529;43.286;23.360;2023-06-14T02:02:03;98934.66;;;18.52;72.11
79129;BME280;68529;43.286;23.360;2023-06-14T02:04:28;98938.28;;;18.51;72.17
79129;BME280;68529;43.286;23.360;2023-06-14T02:06:54;98939.03;;;18.53;72.07
79129;BME280;68529;43.286;23.360;2023-06-14T02:09:19;98942.50;;;18.54;72.03
79129;BME280;68529;43.286;23.360;2023-06-14T02:11:45;98939.97;;;18.52;72.19
79129;BME280;68529;43.286;23.360;2023-06-14T02:14:10;98937.19;;;18.54;72.09
79129;BME280;68529;43.286;23.360;2023-06-14T02:16:37;98943.28;;;18.56;72.25
79129;BME280;68529;43.286;23.360;2023-06-14T02:19:04;98942.63;;;18.52;72.60
79129;BME280;68529;43.286;23.360;2023-06-14T02:21:29;98951.56;;;18.51;72.25
79129;BME280;68529;43.286;23.360;2023-06-14T02:23:55;98947.97;;;18.52;72.18
79129;BME280;68529;43.286;23.360;2023-06-14T02:26:21;98944.22;;;18.55;72.07
79129;BME280;68529;43.286;23.360;2023-06-14T02:28:48;98946.75;;;18.56;71.98
79129;BME280;68529;43.286;23.360;2023-06-14T02:31:13;98943.16;;;18.57;72.05
79129;BME280;68529;43.286;23.360;2023-06-14T02:33:39;98945.09;;;18.55;72.05
79129;BME280;68529;43.286;23.360;2023-06-14T02:36:05;98939.03;;;18.53;72.10
79129;BME280;68529;43.286;23.360;2023-06-14T02:38:30;98945.31;;;18.52;71.92
79129;BME280;68529;43.286;23.360;2023-06-14T02:40:57;98947.97;;;18.52;72.20
79129;BME280;68529;43.286;23.360;2023-06-14T02:43:22;98948.91;;;18.51;71.75
79129;BME280;68529;43.286;23.360;2023-06-14T02:45:47;98947.97;;;18.52;72.20
79129;BME280;68529;43.286;23.360;2023-06-14T02:48:13;98937.41;;;18.51;72.02
79129;BME280;68529;43.286;23.360;2023-06-14T02:50:38;98938.28;;;18.51;72.04
79129;BME280;68529;43.286;23.360;2023-06-14T02:53:05;98938.28;;;18.51;72.14
79129;BME280;68529;43.286;23.360;2023-06-14T02:55:31;98940.72;;;18.54;71.94
79129;BME280;68529;43.286;23.360;2023-06-14T02:57:57;98939.13;;;18.52;71.98
79129;BME280;68529;43.286;23.360;2023-06-14T03:00:22;98944.34;;;18.53;71.84
79129;BME280;68529;43.286;23.360;2023-06-14T03:02:49;98948.69;;;18.54;71.88
79129;BME280;68529;43.286;23.360;2023-06-14T03:05:16;98943.38;;;18.54;71.93
79129;BME280;68529;43.286;23.360;2023-06-14T03:07:45;98941.69;;;18.53;71.99
79129;BME280;68529;43.286;23.360;2023-06-14T03:10:11;98943.28;;;18.56;71.97
79129;BME280;68529;43.286;23.360;2023-06-14T03:12:39;98946.66;;;18.58;71.94
79129;BME280;68529;43.286;23.360;2023-06-14T03:15:05;98950.28;;;18.57;71.89
79129;BME280;68529;43.286;23.360;2023-06-14T03:17:32;98947.75;;;18.55;72.05
79129;BME280;68529;43.286;23.360;2023-06-14T03:19:59;98957.00;;;18.50;72.10
79129;BME280;68529;43.286;23.360;2023-06-14T03:22:25;98954.88;;;18.55;71.97
79129;BME280;68529;43.286;23.360;2023-06-14T03:24:51;98952.94;;;18.57;72.23
79129;BME280;68529;43.286;23.360;2023-06-14T03:27:17;98956.25;;;18.60;71.75
79129;BME280;68529;43.286;23.360;2023-06-14T03:29:44;98951.88;;;18.59;72.09
79129;BME280;68529;43.286;23.360;2023-06-14T03:32:09;98951.03;;;18.59;72.09
79129;BME280;68529;43.286;23.360;2023-06-14T03:34:35;98953.47;;;18.62;71.90
79129;BME280;68529;43.286;23.360;2023-06-14T03:37:00;98956.97;;;18.63;72.15
79129;BME280;68529;43.286;23.360;2023-06-14T03:39:26;98957.72;;;18.65;71.99
79129;BME280;68529;43.286;23.360;2023-06-14T03:41:51;98953.59;;;18.60;72.51
79129;BME280;68529;43.286;23.360;2023-06-14T03:44:18;98959.13;;;18.57;72.13
79129;BME280;68529;43.286;23.360;2023-06-14T03:46:44;98962.72;;;18.56;71.95
79129;BME280;68529;43.286;23.360;2023-06-14T03:49:11;98962.41;;;18.61;72.25
79129;BME280;68529;43.286;23.360;2023-06-14T03:51:36;98964.00;;;18.64;72.07
79129;BME280;68529;43.286;23.360;2023-06-14T03:54:02;98956.66;;;18.67;72.26
79129;BME280;68529;43.286;23.360;2023-06-14T03:56:27;98957.94;;;18.62;72.04
79129;BME280;68529;43.286;23.360;2023-06-14T03:58:53;98960.50;;;18.63;72.09
79129;BME280;68529;43.286;23.360;2023-06-14T04:01:18;98965.50;;;18.68;71.72
79129;BME280;68529;43.286;23.360;2023-06-14T04:03:43;98970.69;;;18.69;71.66
79129;BME280;68529;43.286;23.360;2023-06-14T04:06:09;98969.09;;;18.67;71.61
79129;BME280;68529;43.286;23.360;2023-06-14T04:08:34;98962.50;;;18.59;71.91
79129;BME280;68529;43.286;23.360;2023-06-14T04:11:00;98965.94;;;18.62;71.74
79129;BME280;68529;43.286;23.360;2023-06-14T04:13:26;98969.84;;;18.69;71.74
79129;BME280;68529;43.286;23.360;2023-06-14T04:15:51;98972.72;;;18.66;71.47
79129;BME280;68529;43.286;23.360;2023-06-14T04:18:17;98969.09;;;18.67;71.07
79129;BME280;68529;43.286;23.360;2023-06-14T04:20:43;98980.47;;;18.69;71.37
79129;BME280;68529;43.286;23.360;2023-06-14T04:23:17;98969.53;;;18.60;71.33
79129;BME280;68529;43.286;23.360;2023-06-14T04:25:46;98971.75;;;18.67;71.42
79129;BME280;68529;43.286;23.360;2023-06-14T04:28:13;98969.31;;;18.64;71.32
79129;BME280;68529;43.286;23.360;2023-06-14T04:30:41;98971.03;;;18.52;70.86
79129;BME280;68529;43.286;23.360;2023-06-14T04:33:06;98974.97;;;18.59;71.08
79129;BME280;68529;43.286;23.360;2023-06-14T04:35:33;98980.47;;;18.69;70.75
79129;BME280;68529;43.286;23.360;2023-06-14T04:38:01;98991.63;;;18.74;70.49
79129;BME280;68529;43.286;23.360;2023-06-14T04:40:30;98996.53;;;18.80;70.71
79129;BME280;68529;43.286;23.360;2023-06-14T04:42:56;98986.63;;;18.82;70.59
79129;BME280;68529;43.286;23.360;2023-06-14T04:45:22;98995.38;;;18.84;70.42
79129;BME280;68529;43.286;23.360;2023-06-14T04:47:49;98993.13;;;18.78;70.14
79129;BME280;68529;43.286;23.360;2023-06-14T04:50:15;98992.19;;;18.79;70.23
79129;BME280;68529;43.286;23.360;2023-06-14T04:52:41;98993.88;;;18.80;70.00
79129;BME280;68529;43.286;23.360;2023-06-14T04:55:08;98989.69;;;18.88;69.51
79129;BME280;68529;43.286;23.360;2023-06-14T04:57:33;98990.22;;;18.93;69.47
79129;BME280;68529;43.286;23.360;2023-06-14T05:00:00;98995.53;;;18.93;69.37
79129;BME280;68529;43.286;23.360;2023-06-14T05:02:26;98993.72;;;18.94;69.28
79129;BME280;68529;43.286;23.360;2023-06-14T05:04:53;99001.63;;;18.95;69.07
79129;BME280;68529;43.286;23.360;2023-06-14T05:07:18;99003.94;;;19.00;69.42
79129;BME280;68529;43.286;23.360;2023-06-14T05:09:45;99006.38;;;19.03;68.99
79129;BME280;68529;43.286;23.360;2023-06-14T05:12:10;99013.28;;;19.05;69.29
79129;BME280;68529;43.286;23.360;2023-06-14T05:14:36;99011.47;;;19.06;69.25
79129;BME280;68529;43.286;23.360;2023-06-14T05:17:02;99012.22;;;19.08;69.45
79129;BME280;68529;43.286;23.360;2023-06-14T05:19:28;99011.13;;;19.10;69.21
79129;BME280;68529;43.286;23.360;2023-06-14T05:21:53;99012.94;;;19.10;69.31
79129;BME280;68529;43.286;23.360;2023-06-14T05:24:19;99024.13;;;19.15;68.78
79129;BME280;68529;43.286;23.360;2023-06-14T05:26:45;99033.59;;;19.19;68.97
79129;BME280;68529;43.286;23.360;2023-06-14T05:29:11;99030.69;;;19.22;68.90
79129;BME280;68529;43.286;23.360;2023-06-14T05:31:37;99020.69;;;19.26;68.66
79129;BME280;68529;43.286;23.360;2023-06-14T05:34:02;99035.34;;;19.31;68.84
79129;BME280;68529;43.286;23.360;2023-06-14T05:36:28;99037.81;;;19.34;68.67
79129;BME280;68529;43.286;23.360;2023-06-14T05:38:54;99037.59;;;19.37;68.74
79129;BME280;68529;43.286;23.360;2023-06-14T05:41:28;99034.91;;;19.37;68.75
79129;BME280;68529;43.286;23.360;2023-06-14T05:43:55;99044.41;;;19.41;68.66
79129;BME280;68529;43.286;23.360;2023-06-14T05:46:21;99039.94;;;19.42;68.50
79129;BME280;68529;43.286;23.360;2023-06-14T05:48:50;99043.94;;;19.47;68.77
79129;BME280;68529;43.286;23.360;2023-06-14T05:51:16;99035.38;;;19.55;68.48
79129;BME280;68529;43.286;23.360;2023-06-14T05:53:44;99035.28;;;19.56;68.33
79129;BME280;68529;43.286;23.360;2023-06-14T05:56:09;99041.47;;;19.57;67.95
79129;BME280;68529;43.286;23.360;2023-06-14T05:58:35;99040.38;;;19.59;67.74
79129;BME280;68529;43.286;23.360;2023-06-14T06:01:00;99034.72;;;19.64;67.41
79129;BME280;68529;43.286;23.360;2023-06-14T06:03:26;99036.25;;;19.55;67.64
79129;BME280;68529;43.286;23.360;2023-06-14T06:05:54;99031.84;;;19.54;66.92
79129;BME280;68529;43.286;23.360;2023-06-14T06:08:20;99028.38;;;19.54;66.42
79129;BME280;68529;43.286;23.360;2023-06-14T06:10:46;99028.44;;;19.65;67.32
79129;BME280;68529;43.286;23.360;2023-06-14T06:13:11;99026.63;;;19.76;66.76
79129;BME280;68529;43.286;23.360;2023-06-14T06:15:37;99033.81;;;19.76;66.29
79129;BME280;68529;43.286;23.360;2023-06-14T06:18:02;99032.94;;;19.75;66.71
79129;BME280;68529;43.286;23.360;2023-06-14T06:20:30;99032.59;;;19.80;67.22
79129;BME280;68529;43.286;23.360;2023-06-14T06:22:59;99040.84;;;19.88;66.72
79129;BME280;68529;43.286;23.360;2023-06-14T06:25:25;99042.34;;;19.92;66.75
79129;BME280;68529;43.286;23.360;2023-06-14T06:27:53;99042.97;;;19.96;67.24
79129;BME280;68529;43.286;23.360;2023-06-14T06:30:19;99041.03;;;19.98;67.10
79129;BME280;68529;43.286;23.360;2023-06-14T06:32:44;99039.94;;;20.00;67.33
79129;BME280;68529;43.286;23.360;2023-06-14T06:35:11;99041.50;;;20.03;66.84
79129;BME280;68529;43.286;23.360;2023-06-14T06:37:38;99036.09;;;20.04;66.85
79129;BME280;68529;43.286;23.360;2023-06-14T06:40:04;99043.72;;;20.09;66.89
79129;BME280;68529;43.286;23.360;2023-06-14T06:42:34;99043.94;;;20.06;67.00
79129;BME280;68529;43.286;23.360;2023-06-14T06:45:00;99043.81;;;20.07;66.88
79129;BME280;68529;43.286;23.360;2023-06-14T06:47:25;99036.31;;;20.01;65.75
79129;BME280;68529;43.286;23.360;2023-06-14T06:49:51;99036.78;;;19.95;66.39
79129;BME280;68529;43.286;23.360;2023-06-14T06:52:16;99039.22;;;19.98;66.30
79129;BME280;68529;43.286;23.360;2023-06-14T06:54:42;99037.88;;;20.04;66.48
79129;BME280;68529;43.286;23.360;2023-06-14T06:57:07;99042.88;;;20.08;66.32
79129;BME280;68529;43.286;23.360;2023-06-14T06:59:33;99047.34;;;20.08;66.41
79129;BME280;68529;43.286;23.360;2023-06-14T07:01:59;99050.47;;;20.02;66.04
79129;BME280;68529;43.286;23.360;2023-06-14T07:04:24;99051.22;;;20.04;65.80
79129;BME280;68529;43.286;23.360;2023-06-14T07:06:50;99046.75;;;20.04;65.56
79129;BME280;68529;43.286;23.360;2023-06-14T07:09:15;99046.63;;;20.06;65.42
79129;BME280;68529;43.286;23.360;2023-06-14T07:11:44;99046.97;;;20.01;65.54
79129;BME280;68529;43.286;23.360;2023-06-14T07:14:10;99048.88;;;19.99;66.04
79129;BME280;68529;43.286;23.360;2023-06-14T07:16:35;99048.56;;;20.04;66.20
79129;BME280;68529;43.286;23.360;2023-06-14T07:19:04;99057.16;;;20.07;66.32
79129;BME280;68529;43.286;23.360;2023-06-14T07:21:29;99053.53;;;20.08;65.71
79129;BME280;68529;43.286;23.360;2023-06-14T07:23:55;99057.63;;;20.01;65.95
79129;BME280;68529;43.286;23.360;2023-06-14T07:26:21;99050.59;;;20.00;65.60
79129;BME280;68529;43.286;23.360;2023-06-14T07:28:48;99048.16;;;19.97;65.62
79129;BME280;68529;43.286;23.360;2023-06-14T07:31:14;99047.94;;;20.00;65.83
79129;BME280;68529;43.286;23.360;2023-06-14T07:33:41;99049.53;;;20.14;65.81
79129;BME280;68529;43.286;23.360;2023-06-14T07:36:07;99043.84;;;20.18;66.36
79129;BME280;68529;43.286;23.360;2023-06-14T07:38:32;99047.66;;;20.27;66.27
79129;BME280;68529;43.286;23.360;2023-06-14T07:40:58;99049.53;;;20.38;66.06
79129;BME280;68529;43.286;23.360;2023-06-14T07:43:23;99052.91;;;20.40;65.87
79129;BME280;68529;43.286;23.360;2023-06-14T07:45:49;99044.19;;;20.38;65.31
79129;BME280;68529;43.286;23.360;2023-06-14T07:48:14;99052.44;;;20.46;65.94
79129;BME280;68529;43.286;23.360;2023-06-14T07:50:40;99049.16;;;20.42;65.66
79129;BME280;68529;43.286;23.360;2023-06-14T07:53:07;99053.75;;;20.40;65.83
79129;BME280;68529;43.286;23.360;2023-06-14T07:55:32;99058.47;;;20.37;65.84
79129;BME280;68529;43.286;23.360;2023-06-14T07:58:02;99062.47;;;20.31;66.58
79129;BME280;68529;43.286;23.360;2023-06-14T08:00:27;99064.91;;;20.34;65.61
79129;BME280;68529;43.286;23.360;2023-06-14T08:02:53;99078.50;;;20.42;65.51
79129;BME280;68529;43.286;23.360;2023-06-14T08:05:23;99078.47;;;20.31;65.38
79129;BME280;68529;43.286;23.360;2023-06-14T08:07:49;99081.38;;;20.28;66.12
79129;BME280;68529;43.286;23.360;2023-06-14T08:10:14;99083.81;;;20.31;66.11
79129;BME280;68529;43.286;23.360;2023-06-14T08:12:40;99089.53;;;20.38;66.47
79129;BME280;68529;43.286;23.360;2023-06-14T08:15:05;99094.75;;;20.39;65.94
79129;BME280;68529;43.286;23.360;2023-06-14T08:17:31;99092.81;;;20.41;66.50
79129;BME280;68529;43.286;23.360;2023-06-14T08:19:56;99101.44;;;20.45;66.48
79129;BME280;68529;43.286;23.360;2023-06-14T08:22:23;99101.44;;;20.45;66.45
79129;BME280;68529;43.286;23.360;2023-06-14T08:24:50;99100.09;;;20.39;66.80
79129;BME280;68529;43.286;23.360;2023-06-14T08:27:15;99104.44;;;20.29;65.96
79129;BME280;68529;43.286;23.360;2023-06-14T08:29:41;99103.59;;;20.16;66.84
79129;BME280;68529;43.286;23.360;2023-06-14T08:32:07;99110.94;;;20.25;66.97
79129;BME280;68529;43.286;23.360;2023-06-14T08:34:32;99105.66;;;20.36;66.83
79129;BME280;68529;43.286;23.360;2023-06-14T08:36:57;99109.03;;;20.38;66.70
79129;BME280;68529;43.286;23.360;2023-06-14T08:39:23;99109.16;;;20.37;66.67
79129;BME280;68529;43.286;23.360;2023-06-14T08:41:49;99107.59;;;20.34;66.51
79129;BME280;68529;43.286;23.360;2023-06-14T08:44:16;99106.88;;;20.32;66.54
79129;BME280;68529;43.286;23.360;2023-06-14T08:46:42;99106.88;;;20.32;66.83
79129;BME280;68529;43.286;23.360;2023-06-14T08:49:11;99102.03;;;20.37;66.77
79129;BME280;68529;43.286;23.360;2023-06-14T08:51:37;99106.03;;;20.43;66.28
79129;BME280;68529;43.286;23.360;2023-06-14T08:54:03;99099.00;;;20.42;66.73
79129;BME280;68529;43.286;23.360;2023-06-14T08:56:30;99103.25;;;20.44;66.47
79129;BME280;68529;43.286;23.360;2023-06-14T08:58:57;99098.53;;;20.48;66.07
79129;BME280;68529;43.286;23.360;2023-06-14T09:01:25;99105.91;;;20.44;65.57
79129;BME280;68529;43.286;23.360;2023-06-14T09:03:51;99108.13;;;20.50;66.06
79129;BME280;68529;43.286;23.360;2023-06-14T09:06:20;99105.47;;;20.61;66.34
79129;BME280;68529;43.286;23.360;2023-06-14T09:08:48;99106.94;;;20.65;65.92
79129;BME280;68529;43.286;23.360;2023-06-14T09:11:15;99105.22;;;20.64;65.91
79129;BME280;68529;43.286;23.360;2023-06-14T09:13:42;99113.47;;;20.61;66.09
79129;BME280;68529;43.286;23.360;2023-06-14T09:16:08;99113.59;;;20.60;66.64
79129;BME280;68529;43.286;23.360;2023-06-14T09:18:54;99109.00;;;20.62;66.10
79129;BME280;68529;43.286;23.360;2023-06-14T09:21:19;99108.63;;;20.66;66.55
79129;BME280;68529;43.286;23.360;2023-06-14T09:23:47;99111.66;;;20.73;66.88
79129;BME280;68529;43.286;23.360;2023-06-14T09:26:15;99113.00;;;20.78;66.88
79129;BME280;68529;43.286;23.360;2023-06-14T09:28:45;99106.47;;;20.82;66.60
79129;BME280;68529;43.286;23.360;2023-06-14T09:31:18;99110.81;;;20.83;66.17
79129;BME280;68529;43.286;23.360;2023-06-14T09:33:44;99107.19;;;20.84;66.17
79129;BME280;68529;43.286;23.360;2023-06-14T09:36:35;99110.50;;;20.88;66.13
79129;BME280;68529;43.286;23.360;2023-06-14T09:39:02;99102.09;;;20.92;65.90
79129;BME280;68529;43.286;23.360;2023-06-14T09:44:01;99108.16;;;20.95;65.98
79129;BME280;68529;43.286;23.360;2023-06-14T09:46:28;99107.19;;;20.96;66.17
79129;BME280;68529;43.286;23.360;2023-06-14T09:48:57;99095.44;;;20.98;65.78
79129;BME280;68529;43.286;23.360;2023-06-14T09:51:23;99100.63;;;21.00;65.70
79129;BME280;68529;43.286;23.360;2023-06-14T09:53:49;99100.16;;;21.06;65.96
79129;BME280;68529;43.286;23.360;2023-06-14T09:56:38;99108.81;;;21.09;65.75
79129;BME280;68529;43.286;23.360;2023-06-14T09:59:09;99102.50;;;21.10;65.51
79129;BME280;68529;43.286;23.360;2023-06-14T10:01:36;99105.50;;;21.06;65.02
79129;BME280;68529;43.286;23.360;2023-06-14T10:04:06;99098.72;;;21.02;65.21
79129;BME280;68529;43.286;23.360;2023-06-14T10:06:35;99103.19;;;21.01;65.58
79129;BME280;68529;43.286;23.360;2023-06-14T10:09:04;99099.66;;;21.01;65.29
79129;BME280;68529;43.286;23.360;2023-06-14T10:11:31;99097.00;;;21.01;65.38
79129;BME280;68529;43.286;23.360;2023-06-14T10:13:57;99095.06;;;21.03;65.19
79129;BME280;68529;43.286;23.360;2023-06-14T10:19:17;99091.53;;;21.02;64.88
79129;BME280;68529;43.286;23.360;2023-06-14T10:24:28;99088.50;;;21.07;65.15
79129;BME280;68529;43.286;23.360;2023-06-14T10:26:57;99086.72;;;21.07;64.82
79129;BME280;68529;43.286;23.360;2023-06-14T10:29:23;99092.75;;;20.98;64.22
79129;BME280;68529;43.286;23.360;2023-06-14T10:31:50;99091.78;;;20.99;65.41
79129;BME280;68529;43.286;23.360;2023-06-14T10:34:27;99093.63;;;21.10;65.34
79129;BME280;68529;43.286;23.360;2023-06-14T10:37:07;99093.16;;;21.16;65.19
79129;BME280;68529;43.286;23.360;2023-06-14T10:39:43;99094.59;;;21.20;65.07
79129;BME280;68529;43.286;23.360;2023-06-14T10:42:13;99095.59;;;21.19;65.09
79129;BME280;68529;43.286;23.360;2023-06-14T10:47:07;99093.41;;;21.13;65.03
79129;BME280;68529;43.286;23.360;2023-06-14T10:52:28;99080.91;;;21.13;64.85
79129;BME280;68529;43.286;23.360;2023-06-14T10:55:14;99084.25;;;21.04;64.62
79129;BME280;68529;43.286;23.360;2023-06-14T10:57:41;99075.88;;;20.98;64.68
79129;BME280;68529;43.286;23.360;2023-06-14T11:00:08;99078.31;;;20.89;65.44
79129;BME280;68529;43.286;23.360;2023-06-14T11:05:50;99079.50;;;20.97;65.37
79129;BME280;68529;43.286;23.360;2023-06-14T11:10:59;99084.59;;;21.00;65.78
79129;BME280;68529;43.286;23.360;2023-06-14T11:13:28;99074.28;;;21.06;65.41
79129;BME280;68529;43.286;23.360;2023-06-14T11:15:54;99074.09;;;21.09;65.03
79129;BME280;68529;43.286;23.360;2023-06-14T11:18:21;99072.72;;;21.04;65.14
79129;BME280;68529;43.286;23.360;2023-06-14T11:20:50;99078.06;;;21.04;65.23
79129;BME280;68529;43.286;23.360;2023-06-14T11:23:15;99070.31;;;21.12;66.13
79129;BME280;68529;43.286;23.360;2023-06-14T11:25:41;99068.00;;;21.18;65.44
79129;BME280;68529;43.286;23.360;2023-06-14T11:28:06;99071.53;;;21.19;64.28
79129;BME280;68529;43.286;23.360;2023-06-14T11:30:32;99068.50;;;21.12;64.61
79129;BME280;68529;43.286;23.360;2023-06-14T11:32:57;99058.06;;;21.09;65.11
79129;BME280;68529;43.286;23.360;2023-06-14T11:35:24;99058.66;;;21.13;65.31
79129;BME280;68529;43.286;23.360;2023-06-14T11:37:56;99052.00;;;21.18;65.48
79129;BME280;68529;43.286;23.360;2023-06-14T11:40:27;99061.81;;;21.18;64.67
79129;BME280;68529;43.286;23.360;2023-06-14T11:42:59;99051.75;;;21.21;64.92
79129;BME280;68529;43.286;23.360;2023-06-14T11:45:25;99052.94;;;21.28;65.04
79129;BME280;68529;43.286;23.360;2023-06-14T11:47:51;99057.63;;;21.36;65.14
79129;BME280;68529;43.286;23.360;2023-06-14T11:50:16;99054.16;;;21.35;64.72
79129;BME280;68529;43.286;23.360;2023-06-14T11:52:42;99055.75;;;21.27;64.42
79129;BME280;68529;43.286;23.360;2023-06-14T11:55:07;99054.16;;;21.35;64.30
79129;BME280;68529;43.286;23.360;2023-06-14T11:57:36;99047.56;;;21.39;64.28
79129;BME280;68529;43.286;23.360;2023-06-14T12:00:04;99048.63;;;21.48;64.73
79129;BME280;68529;43.286;23.360;2023-06-14T12:02:37;99044.59;;;21.54;63.76
79129;BME280;68529;43.286;23.360;2023-06-14T12:05:06;99035.72;;;21.53;64.08
79129;BME280;68529;43.286;23.360;2023-06-14T12:07:37;99035.47;;;21.56;64.14
79129;BME280;68529;43.286;23.360;2023-06-14T12:10:06;99026.81;;;21.64;63.92
79129;BME280;68529;43.286;23.360;2023-06-14T12:12:37;99026.72;;;21.65;64.04
79129;BME280;68529;43.286;23.360;2023-06-14T12:15:04;99034.22;;;21.71;63.98
79129;BME280;68529;43.286;23.360;2023-06-14T12:17:35;99033.13;;;21.74;63.96
79129;BME280;68529;43.286;23.360;2023-06-14T12:20:12;99035.66;;;21.75;64.15
79129;BME280;68529;43.286;23.360;2023-06-14T12:22:51;99029.25;;;21.67;63.41
79129;BME280;68529;43.286;23.360;2023-06-14T12:25:36;99027.34;;;21.58;63.34
79129;BME280;68529;43.286;23.360;2023-06-14T12:28:06;99032.78;;;21.67;63.24
79129;BME280;68529;43.286;23.360;2023-06-14T12:30:33;99029.44;;;21.75;64.06
79129;BME280;68529;43.286;23.360;2023-06-14T12:32:58;99028.09;;;21.80;64.22
79129;BME280;68529;43.286;23.360;2023-06-14T12:35:24;99018.00;;;21.84;64.16
79129;BME280;68529;43.286;23.360;2023-06-14T12:37:49;99020.06;;;21.91;64.19
79129;BME280;68529;43.286;23.360;2023-06-14T12:40:15;99018.81;;;21.95;64.16
79129;BME280;68529;43.286;23.360;2023-06-14T12:42:41;99019.53;;;21.97;63.93
79129;BME280;68529;43.286;23.360;2023-06-14T12:45:08;99026.44;;;22.00;64.34
79129;BME280;68529;43.286;23.360;2023-06-14T12:47:33;99016.34;;;22.03;64.08
79129;BME280;68529;43.286;23.360;2023-06-14T12:49:58;99018.06;;;22.04;64.26
79129;BME280;68529;43.286;23.360;2023-06-14T12:52:24;99008.78;;;22.09;64.08
79129;BME280;68529;43.286;23.360;2023-06-14T12:54:49;99004.97;;;22.11;63.65
79129;BME280;68529;43.286;23.360;2023-06-14T12:57:15;98994.03;;;22.14;63.70
79129;BME280;68529;43.286;23.360;2023-06-14T12:59:40;98997.81;;;22.12;63.66
79129;BME280;68529;43.286;23.360;2023-06-14T13:02:17;98990.03;;;22.09;63.76
79129;BME280;68529;43.286;23.360;2023-06-14T13:04:43;98980.59;;;22.04;63.71
79129;BME280;68529;43.286;23.360;2023-06-14T13:07:09;98990.84;;;21.99;64.29
79129;BME280;68529;43.286;23.360;2023-06-14T13:09:36;98989.28;;;21.97;63.92